Time;durP1;ratioP1;P1;durP2;ratioP2;P2;SDS_P1;SDS_P2;PMS_P1;PMS_P2;Temp;Humidity;BMP_temperature;BMP_pressure;BME280_temperature;BME280_humidity;BME280_pressure;Samples;Min_cycle;Max_cycle;Signal;HPM_P1;HPM_P2
2021/11/30 00:00:07;;;;;;;;;;;20.60;59.10;;;;;;5016238;28;1276;-69
2021/11/30 00:02:32;;;;;;;;;;;20.50;59.10;;;;;;5031151;28;1113;-69
2021/11/30 00:04:58;;;;;;;;;;;20.60;59.10;;;;;;5003867;28;1275;-69
2021/11/30 00:07:23;;;;;;;;;;;20.60;59.20;;;;;;4996449;28;1363;-69
2021/11/30 00:12:14;;;;;;;;;;;20.60;59.20;;;;;;4996144;28;1247;-69
2021/11/30 00:14:40;;;;;;;;;;;20.50;59.20;;;;;;5007061;28;1281;-69
2021/11/30 00:17:05;;;;;;;;;;;20.50;59.20;;;;;;5015733;28;1324;-69
2021/11/30 00:19:31;;;;;;;;;;;20.50;59.20;;;;;;5003557;28;1332;-69
2021/11/30 00:21:56;;;;;;;;;;;20.50;59.20;;;;;;5011579;28;1037;-69
2021/11/30 00:24:23;;;;;;;;;;;20.50;59.20;;;;;;5030529;28;1385;-69
2021/11/30 00:26:49;;;;;;;;;;;20.50;59.20;;;;;;5015903;28;1324;-69
2021/11/30 00:29:15;;;;;;;;;;;20.50;59.30;;;;;;5014842;28;1934;-69
2021/11/30 00:31:40;;;;;;;;;;;20.50;59.30;;;;;;5014508;28;1247;-70
2021/11/30 00:34:06;;;;;;;;;;;20.50;59.30;;;;;;5015303;28;1272;-69
2021/11/30 00:36:31;;;;;;;;;;;20.50;59.40;;;;;;5015285;28;1167;-69
2021/11/30 00:38:57;;;;;;;;;;;20.50;59.30;;;;;;5030259;28;847;-70
2021/11/30 00:41:22;;;;;;;;;;;20.50;59.40;;;;;;5014614;28;1408;-70
2021/11/30 00:43:50;;;;;;;;;;;20.40;59.40;;;;;;5014822;28;1464;-70
2021/11/30 00:46:20;;;;;;;;;;;20.40;59.40;;;;;;5014669;28;1021;-70
2021/11/30 00:48:45;;;;;;;;;;;20.50;59.40;;;;;;5003142;28;1914;-70
2021/11/30 00:51:12;;;;;;;;;;;20.40;59.40;;;;;;5009777;28;1310;-70
2021/11/30 00:53:38;;;;;;;;;;;20.40;59.40;;;;;;4994868;28;1337;-70
2021/11/30 00:56:04;;;;;;;;;;;20.40;59.40;;;;;;4994357;28;1328;-70
2021/11/30 00:58:29;;;;;;;;;;;20.40;59.40;;;;;;5010247;28;1275;-70
2021/11/30 01:00:54;;;;;;;;;;;20.40;59.40;;;;;;4994193;28;1061;-70
2021/11/30 01:03:20;;;;;;;;;;;20.40;59.40;;;;;;5011827;28;1179;-70
2021/11/30 01:05:45;;;;;;;;;;;20.40;59.40;;;;;;5014432;28;1319;-70
2021/11/30 01:08:11;;;;;;;;;;;20.40;59.50;;;;;;5013693;28;1906;-70
2021/11/30 01:10:36;;;;;;;;;;;20.40;59.50;;;;;;5014049;28;1383;-70
2021/11/30 01:13:03;;;;;;;;;;;20.40;59.50;;;;;;5014046;28;1359;-70
2021/11/30 01:15:28;;;;;;;;;;;20.40;59.50;;;;;;5014434;28;1754;-70
2021/11/30 01:17:54;;;;;;;;;;;20.40;59.50;;;;;;5014632;28;1390;-70
2021/11/30 01:20:19;;;;;;;;;;;20.40;59.50;;;;;;5029769;28;1402;-70
2021/11/30 01:22:45;;;;;;;;;;;20.40;59.60;;;;;;5013188;28;1697;-70
2021/11/30 01:25:10;;;;;;;;;;;20.40;59.60;;;;;;5014418;28;1367;-70
2021/11/30 01:27:36;;;;;;;;;;;20.40;59.60;;;;;;5014504;28;1404;-70
2021/11/30 01:30:02;;;;;;;;;;;20.40;59.60;;;;;;5029308;28;1946;-70
2021/11/30 01:32:28;;;;;;;;;;;20.40;59.60;;;;;;5013663;28;1359;-70
2021/11/30 01:34:53;;;;;;;;;;;20.40;59.60;;;;;;5014313;28;1389;-70
2021/11/30 01:37:19;;;;;;;;;;;20.40;59.60;;;;;;5013603;28;1725;-70
2021/11/30 01:39:45;;;;;;;;;;;20.40;59.60;;;;;;5013903;28;1379;-70
2021/11/30 01:42:13;;;;;;;;;;;20.40;59.70;;;;;;5022744;28;1201;-70
2021/11/30 01:49:54;;;;;;;;;;;20.40;59.70;;;;;;5001627;28;1969;-70
2021/11/30 01:52:20;;;;;;;;;;;20.40;59.70;;;;;;5029335;28;1744;-70
2021/11/30 01:54:46;;;;;;;;;;;20.40;59.70;;;;;;5014084;28;1786;-70
2021/11/30 01:57:12;;;;;;;;;;;20.40;59.70;;;;;;5014150;28;1523;-70
2021/11/30 01:59:38;;;;;;;;;;;20.40;59.70;;;;;;5013774;28;1663;-70
2021/11/30 02:02:03;;;;;;;;;;;20.30;59.70;;;;;;5027900;28;1613;-70
2021/11/30 02:04:29;;;;;;;;;;;20.30;59.70;;;;;;5029078;28;1672;-70
2021/11/30 02:06:54;;;;;;;;;;;20.30;59.70;;;;;;5013738;28;1390;-70
2021/11/30 02:09:20;;;;;;;;;;;20.30;59.70;;;;;;5013482;28;1890;-70
2021/11/30 02:11:45;;;;;;;;;;;20.30;59.80;;;;;;5027754;28;1412;-70
2021/11/30 02:14:11;;;;;;;;;;;20.30;59.80;;;;;;5028815;28;1711;-70
2021/11/30 02:16:36;;;;;;;;;;;20.30;59.80;;;;;;5013681;28;1421;-70
2021/11/30 02:19:03;;;;;;;;;;;20.30;59.80;;;;;;5013080;28;1356;-70
2021/11/30 02:21:35;;;;;;;;;;;20.30;59.80;;;;;;5012112;28;1440;-70
2021/11/30 02:24:00;;;;;;;;;;;20.30;59.80;;;;;;5013423;28;1484;-70
2021/11/30 02:26:27;;;;;;;;;;;20.30;59.80;;;;;;5012867;28;1405;-70
2021/11/30 02:28:56;;;;;;;;;;;20.30;59.80;;;;;;5013135;28;1902;-70
2021/11/30 02:31:21;;;;;;;;;;;20.30;59.80;;;;;;5027161;28;1395;-70
2021/11/30 02:33:47;;;;;;;;;;;20.30;59.80;;;;;;5012961;28;1673;-69
2021/11/30 02:36:54;;;;;;;;;;;20.30;59.80;;;;;;5012939;28;1693;-70
2021/11/30 02:39:20;;;;;;;;;;;20.30;59.70;;;;;;5012927;28;1441;-70
2021/11/30 02:41:45;;;;;;;;;;;20.30;59.70;;;;;;5027018;28;1644;-70
2021/11/30 02:44:12;;;;;;;;;;;20.30;59.70;;;;;;5012649;28;1505;-70
2021/11/30 02:46:45;;;;;;;;;;;20.40;59.70;;;;;;5012711;28;1362;-70
2021/11/30 02:49:14;;;;;;;;;;;20.40;59.70;;;;;;5012984;28;1906;-70
2021/11/30 02:51:41;;;;;;;;;;;20.40;59.70;;;;;;5012366;28;1655;-70
2021/11/30 02:54:08;;;;;;;;;;;20.40;59.60;;;;;;5027592;28;1662;-70
2021/11/30 02:56:37;;;;;;;;;;;20.30;59.60;;;;;;5011288;28;1400;-70
2021/11/30 02:59:03;;;;;;;;;;;20.40;59.60;;;;;;5012741;28;1167;-70
2021/11/30 03:01:28;;;;;;;;;;;20.40;59.60;;;;;;5012131;28;1616;-70
2021/11/30 03:03:54;;;;;;;;;;;20.40;59.60;;;;;;5011388;28;1698;-70
2021/11/30 03:06:19;;;;;;;;;;;20.40;59.60;;;;;;5012790;28;1404;-70
2021/11/30 03:08:45;;;;;;;;;;;20.40;59.60;;;;;;5027892;28;1970;-70
2021/11/30 03:11:11;;;;;;;;;;;20.40;59.60;;;;;;5011343;28;1276;-70
2021/11/30 03:13:36;;;;;;;;;;;20.40;59.60;;;;;;5012659;28;1680;-70
2021/11/30 03:16:02;;;;;;;;;;;20.40;59.60;;;;;;5012744;28;1592;-69
2021/11/30 03:18:27;;;;;;;;;;;20.40;59.60;;;;;;5012802;28;1477;-70
2021/11/30 03:20:53;;;;;;;;;;;20.40;59.70;;;;;;5026733;28;1395;-70
2021/11/30 03:23:18;;;;;;;;;;;20.40;59.70;;;;;;5011468;28;1790;-70
2021/11/30 03:25:44;;;;;;;;;;;20.40;59.70;;;;;;5012051;28;1360;-70
2021/11/30 03:28:10;;;;;;;;;;;20.30;59.60;;;;;;5012742;28;1910;-70
2021/11/30 03:30:37;;;;;;;;;;;20.40;59.70;;;;;;5012652;28;1654;-70
2021/11/30 03:35:47;;;;;;;;;;;20.30;59.70;;;;;;5014852;28;1681;-69
2021/11/30 03:38:12;;;;;;;;;;;20.30;59.70;;;;;;5009364;28;1155;-69
2021/11/30 03:40:38;;;;;;;;;;;20.30;59.70;;;;;;5009200;28;1143;-70
2021/11/30 03:43:04;;;;;;;;;;;20.40;60.00;;;;;;5028430;28;1404;-70
2021/11/30 03:45:29;;;;;;;;;;;20.40;60.10;;;;;;5012270;28;1297;-70
2021/11/30 03:47:55;;;;;;;;;;;20.40;60.10;;;;;;5014235;28;1319;-70
2021/11/30 03:50:20;;;;;;;;;;;20.40;60.10;;;;;;5013762;28;1977;-70
2021/11/30 03:52:45;;;;;;;;;;;20.50;60.30;;;;;;5012926;28;1439;-69
2021/11/30 03:55:11;;;;;;;;;;;20.50;60.20;;;;;;5015532;28;1838;-70
2021/11/30 03:57:36;;;;;;;;;;;20.50;61.00;;;;;;5013988;28;1306;-70
2021/11/30 04:00:08;;;;;;;;;;;20.50;60.30;;;;;;5014400;28;1325;-69
2021/11/30 04:02:33;;;;;;;;;;;20.50;60.30;;;;;;5012472;28;1289;-70
2021/11/30 04:04:59;;;;;;;;;;;20.50;60.40;;;;;;5012877;28;1366;-69
2021/11/30 04:07:24;;;;;;;;;;;20.50;60.40;;;;;;5013711;28;1329;-69
2021/11/30 04:09:50;;;;;;;;;;;20.50;61.10;;;;;;5014655;28;1902;-69
2021/11/30 04:12:15;;;;;;;;;;;20.50;60.50;;;;;;5011349;28;1396;-69
2021/11/30 04:14:41;;;;;;;;;;;20.50;60.50;;;;;;5012247;28;1326;-69
2021/11/30 04:17:06;;;;;;;;;;;20.50;60.60;;;;;;5015087;28;1301;-70
2021/11/30 04:19:32;;;;;;;;;;;20.50;60.70;;;;;;5015967;28;1370;-70
2021/11/30 04:21:58;;;;;;;;;;;20.60;60.90;;;;;;5015085;28;1041;-70
2021/11/30 04:24:23;;;;;;;;;;;20.60;60.90;;;;;;5015314;28;1382;-70
2021/11/30 04:26:49;;;;;;;;;;;20.60;60.90;;;;;;5014905;28;1324;-70
2021/11/30 04:29:14;;;;;;;;;;;20.60;60.90;;;;;;5030223;28;1898;-70
2021/11/30 04:31:40;;;;;;;;;;;20.60;61.00;;;;;;5014448;28;1438;-70
2021/11/30 04:34:05;;;;;;;;;;;20.60;60.90;;;;;;5014813;28;1333;-70
2021/11/30 04:36:31;;;;;;;;;;;20.50;60.90;;;;;;5012909;28;1041;-70
2021/11/30 04:38:57;;;;;;;;;;;20.60;61.00;;;;;;5014723;28;1293;-70
2021/11/30 04:41:22;;;;;;;;;;;20.50;60.90;;;;;;5029516;28;1397;-70
2021/11/30 04:43:48;;;;;;;;;;;20.50;61.00;;;;;;5013786;28;1373;-70
2021/11/30 04:46:24;;;;;;;;;;;20.50;61.20;;;;;;5015762;28;1185;-69
2021/11/30 04:49:38;;;;;;;;;;;20.50;61.20;;;;;;5015307;28;1911;-69
2021/11/30 04:51:38;;;;;;;;;;;20.50;61.10;;;;;;5019124;28;1072;-69
2021/11/30 04:54:03;;;;;;;;;;;20.50;61.20;;;;;;5014648;28;1370;-69
2021/11/30 04:56:29;;;;;;;;;;;20.50;61.20;;;;;;5030143;28;1265;-69
2021/11/30 04:58:54;;;;;;;;;;;20.50;61.20;;;;;;5014521;28;1366;-69
2021/11/30 05:01:20;;;;;;;;;;;20.50;61.30;;;;;;5013373;28;1068;-69
2021/11/30 05:03:45;;;;;;;;;;;20.50;61.40;;;;;;5014211;28;1357;-69
2021/11/30 05:06:12;;;;;;;;;;;20.50;61.30;;;;;;5014127;28;1139;-69
2021/11/30 05:08:37;;;;;;;;;;;20.50;61.40;;;;;;5014584;28;1902;-69
2021/11/30 05:11:03;;;;;;;;;;;20.50;61.40;;;;;;5028987;28;1307;-69
2021/11/30 05:13:29;;;;;;;;;;;20.50;61.40;;;;;;5013681;28;1094;-69
2021/11/30 05:15:54;;;;;;;;;;;20.60;61.40;;;;;;5014145;28;1318;-69
2021/11/30 05:18:21;;;;;;;;;;;20.50;61.40;;;;;;5013947;28;1266;-69
2021/11/30 05:20:47;;;;;;;;;;;20.60;61.40;;;;;;5014036;28;1252;-69
2021/11/30 05:23:15;;;;;;;;;;;20.60;61.30;;;;;;5013996;28;1262;-68
2021/11/30 05:25:41;;;;;;;;;;;20.60;61.20;;;;;;5014358;28;1365;-69
2021/11/30 05:28:06;;;;;;;;;;;20.70;61.20;;;;;;5013895;28;1252;-69
2021/11/30 05:30:38;;;;;;;;;;;20.70;61.00;;;;;;5012308;28;1938;-69
2021/11/30 05:33:04;;;;;;;;;;;20.70;61.00;;;;;;5013268;28;1133;-69
2021/11/30 05:35:30;;;;;;;;;;;20.80;60.90;;;;;;5013866;28;1284;-69
2021/11/30 05:37:55;;;;;;;;;;;20.80;60.80;;;;;;5013813;28;1068;-69
2021/11/30 05:40:21;;;;;;;;;;;20.90;60.80;;;;;;5013846;28;1061;-69
2021/11/30 05:42:46;;;;;;;;;;;20.90;60.70;;;;;;5012924;28;1214;-69
2021/11/30 05:45:12;;;;;;;;;;;20.90;60.60;;;;;;5013263;28;1330;-69
2021/11/30 05:47:37;;;;;;;;;;;20.90;60.40;;;;;;5028682;28;1304;-69
2021/11/30 05:50:03;;;;;;;;;;;21.00;60.50;;;;;;5013780;28;1967;-69
2021/11/30 05:52:28;;;;;;;;;;;21.00;60.40;;;;;;5012820;28;1090;-69
2021/11/30 05:54:54;;;;;;;;;;;21.00;60.40;;;;;;5013394;28;1278;-69
2021/11/30 05:57:22;;;;;;;;;;;21.00;60.50;;;;;;5013323;28;1443;-69
2021/11/30 05:59:47;;;;;;;;;;;21.00;60.50;;;;;;5013811;28;1479;-69
2021/11/30 06:02:13;;;;;;;;;;;21.00;60.50;;;;;;5012569;28;1052;-69
2021/11/30 06:04:38;;;;;;;;;;;21.00;60.40;;;;;;5014035;28;1388;-69
2021/11/30 06:07:04;;;;;;;;;;;21.00;60.50;;;;;;5028892;28;1328;-69
2021/11/30 06:09:29;;;;;;;;;;;21.00;60.50;;;;;;5002949;28;1906;-69
2021/11/30 06:11:56;;;;;;;;;;;21.00;60.50;;;;;;4993419;28;1300;-69
2021/11/30 06:14:22;;;;;;;;;;;21.00;60.40;;;;;;4993023;28;1372;-69
2021/11/30 06:16:47;;;;;;;;;;;21.00;60.40;;;;;;4993449;28;1402;-69
2021/11/30 06:19:14;;;;;;;;;;;21.00;60.50;;;;;;5008879;28;1073;-69
2021/11/30 06:21:40;;;;;;;;;;;21.10;60.50;;;;;;5007445;28;1385;-69
2021/11/30 06:24:05;;;;;;;;;;;21.00;60.30;;;;;;5012565;28;1401;-69
2021/11/30 06:26:31;;;;;;;;;;;21.10;61.30;;;;;;5011277;28;1824;-69
2021/11/30 06:28:56;;;;;;;;;;;21.10;60.50;;;;;;5011589;28;2022;-69
2021/11/30 06:31:22;;;;;;;;;;;21.10;60.50;;;;;;5012007;28;935;-70
2021/11/30 06:33:47;;;;;;;;;;;21.00;60.40;;;;;;5027452;28;1218;-70
2021/11/30 06:36:13;;;;;;;;;;;21.10;60.60;;;;;;5012808;28;1068;-70
2021/11/30 06:38:38;;;;;;;;;;;21.10;60.50;;;;;;5028181;28;1097;-70
2021/11/30 06:41:04;;;;;;;;;;;21.10;60.50;;;;;;5012085;28;1088;-70
2021/11/30 06:43:29;;;;;;;;;;;21.10;60.60;;;;;;5012460;28;1076;-70
2021/11/30 06:45:55;;;;;;;;;;;21.10;60.50;;;;;;5012229;28;1414;-70
2021/11/30 06:48:21;;;;;;;;;;;21.20;60.50;;;;;;5012820;28;1906;-71
2021/11/30 06:50:46;;;;;;;;;;;21.10;60.50;;;;;;5012241;28;1446;-70
2021/11/30 06:53:12;;;;;;;;;;;21.20;60.40;;;;;;5012553;28;1308;-70
2021/11/30 06:55:37;;;;;;;;;;;21.10;60.40;;;;;;5012471;28;1412;-70
2021/11/30 06:58:03;;;;;;;;;;;21.20;60.50;;;;;;5027896;28;1355;-69
2021/11/30 07:00:28;;;;;;;;;;;21.20;60.50;;;;;;5012514;28;1336;-70
2021/11/30 07:02:55;;;;;;;;;;;21.20;60.40;;;;;;5010641;28;1390;-70
2021/11/30 07:05:25;;;;;;;;;;;21.20;60.50;;;;;;5012595;28;1350;-70
2021/11/30 07:13:14;;;;;;;;;;;21.20;60.50;;;;;;5027480;28;1302;-70
2021/11/30 07:15:40;;;;;;;;;;;21.20;60.50;;;;;;5011232;28;1578;-71
2021/11/30 07:18:06;;;;;;;;;;;21.20;60.50;;;;;;5011983;28;1139;-71
2021/11/30 07:20:31;;;;;;;;;;;21.20;60.30;;;;;;5012304;28;1055;-71
2021/11/30 07:22:57;;;;;;;;;;;21.10;60.40;;;;;;5011553;28;1084;-70
2021/11/30 07:25:23;;;;;;;;;;;21.20;60.40;;;;;;5012546;28;1328;-70
2021/11/30 07:27:49;;;;;;;;;;;21.20;60.40;;;;;;5012099;28;1326;-70
2021/11/30 07:30:14;;;;;;;;;;;21.20;60.40;;;;;;5012108;28;1957;-70
2021/11/30 07:32:40;;;;;;;;;;;21.20;60.40;;;;;;5011462;28;1280;-70
2021/11/30 07:35:06;;;;;;;;;;;21.20;60.50;;;;;;5027222;28;1507;-70
2021/11/30 07:37:32;;;;;;;;;;;21.20;60.50;;;;;;5011965;28;1300;-70
2021/11/30 07:39:58;;;;;;;;;;;21.20;61.30;;;;;;5012121;28;1348;-69
2021/11/30 07:42:24;;;;;;;;;;;21.20;60.50;;;;;;5026534;28;1285;-70
2021/11/30 07:44:50;;;;;;;;;;;21.20;60.60;;;;;;5011907;28;1371;-70
2021/11/30 07:47:15;;;;;;;;;;;21.20;60.80;;;;;;5027449;28;1316;-70
2021/11/30 07:49:41;;;;;;;;;;;21.30;60.90;;;;;;5012256;28;1964;-70
2021/11/30 07:52:07;;;;;;;;;;;21.30;60.70;;;;;;5011212;28;1665;-70
2021/11/30 07:54:32;;;;;;;;;;;21.40;60.50;;;;;;5011717;28;1350;-70
2021/11/30 07:56:58;;;;;;;;;;;21.50;60.40;;;;;;5011659;28;1282;-69
2021/11/30 07:59:23;;;;;;;;;;;21.60;60.20;;;;;;5010550;28;1273;-69
2021/11/30 08:01:49;;;;;;;;;;;21.70;60.00;;;;;;5026717;28;1387;-70
2021/11/30 08:04:14;;;;;;;;;;;21.90;60.00;;;;;;5011755;28;1435;-70
2021/11/30 08:06:40;;;;;;;;;;;22.00;59.60;;;;;;5011901;28;1164;-70
2021/11/30 08:09:07;;;;;;;;;;;22.10;59.30;;;;;;5011569;28;1973;-70
2021/11/30 08:11:33;;;;;;;;;;;22.20;59.00;;;;;;5011073;28;1348;-70
2021/11/30 08:13:58;;;;;;;;;;;22.30;58.90;;;;;;5026968;28;1251;-70
2021/11/30 08:16:24;;;;;;;;;;;22.40;58.60;;;;;;5011786;28;1267;-70
2021/11/30 08:18:49;;;;;;;;;;;22.40;58.40;;;;;;5028912;28;1390;-70
2021/11/30 08:21:15;;;;;;;;;;;22.50;58.20;;;;;;5014526;28;1276;-70
2021/11/30 08:23:40;;;;;;;;;;;22.60;58.10;;;;;;5015084;28;1243;-70
2021/11/30 08:26:06;;;;;;;;;;;22.60;57.90;;;;;;5015095;28;1409;-69
2021/11/30 08:28:32;;;;;;;;;;;22.70;57.80;;;;;;5015022;28;1957;-70
2021/11/30 08:30:57;;;;;;;;;;;22.80;57.70;;;;;;5029929;28;1419;-70
2021/11/30 08:33:23;;;;;;;;;;;22.80;57.50;;;;;;5014907;28;1419;-70
2021/11/30 08:35:48;;;;;;;;;;;22.90;57.40;;;;;;5015027;28;1284;-70
2021/11/30 08:38:14;;;;;;;;;;;22.90;57.30;;;;;;5014841;28;1351;-70
2021/11/30 08:40:39;;;;;;;;;;;23.00;57.20;;;;;;5014791;28;1068;-68
2021/11/30 08:43:05;;;;;;;;;;;23.00;57.20;;;;;;5013964;28;1428;-70
2021/11/30 08:45:31;;;;;;;;;;;23.10;57.10;;;;;;5030132;28;1326;-68
2021/11/30 08:47:56;;;;;;;;;;;23.10;57.00;;;;;;5030167;28;1450;-68
2021/11/30 08:50:22;;;;;;;;;;;23.10;57.00;;;;;;5014460;28;1910;-69
2021/11/30 08:52:47;;;;;;;;;;;23.10;56.90;;;;;;5003738;28;1488;-70
2021/11/30 08:55:13;;;;;;;;;;;23.20;57.00;;;;;;5027922;28;1288;-70
2021/11/30 08:57:38;;;;;;;;;;;23.20;56.90;;;;;;5013613;28;1320;-72
2021/11/30 09:00:08;;;;;;;;;;;23.20;56.90;;;;;;5013224;28;1268;-70
2021/11/30 09:02:35;;;;;;;;;;;23.30;56.90;;;;;;5013380;28;1320;-70
2021/11/30 09:05:01;;;;;;;;;;;23.30;56.90;;;;;;5029570;28;1427;-70
2021/11/30 09:07:26;;;;;;;;;;;23.30;56.90;;;;;;5014005;28;1140;-71
2021/11/30 09:09:51;;;;;;;;;;;23.30;56.90;;;;;;5014450;28;1899;-71
2021/11/30 09:12:17;;;;;;;;;;;23.30;56.90;;;;;;5013475;28;1375;-70
2021/11/30 09:14:43;;;;;;;;;;;23.30;57.00;;;;;;5030263;28;1274;-71
2021/11/30 09:17:09;;;;;;;;;;;23.30;57.00;;;;;;5014253;28;1127;-71
2021/11/30 09:19:34;;;;;;;;;;;23.30;57.00;;;;;;5014410;28;1417;-70
2021/11/30 09:22:00;;;;;;;;;;;23.30;57.10;;;;;;5013197;28;1324;-70
2021/11/30 09:24:25;;;;;;;;;;;23.30;57.10;;;;;;5029185;28;1244;-71
2021/11/30 09:26:52;;;;;;;;;;;23.30;57.20;;;;;;5012515;28;1281;-71
2021/11/30 09:29:17;;;;;;;;;;;23.30;57.30;;;;;;5028659;28;1871;-72
2021/11/30 09:31:43;;;;;;;;;;;23.30;57.30;;;;;;5014392;28;1354;-71
2021/11/30 09:34:08;;;;;;;;;;;23.20;57.40;;;;;;5013955;28;1270;-72
2021/11/30 09:36:34;;;;;;;;;;;23.20;57.50;;;;;;5013700;28;1312;-71
2021/11/30 09:39:00;;;;;;;;;;;23.20;57.50;;;;;;5028811;28;1364;-72
2021/11/30 09:41:26;;;;;;;;;;;23.10;57.50;;;;;;5013084;28;1112;-71
2021/11/30 09:43:51;;;;;;;;;;;23.10;57.60;;;;;;5012286;28;1424;-71
2021/11/30 09:46:17;;;;;;;;;;;23.10;57.70;;;;;;5013870;28;1324;-70
2021/11/30 09:48:42;;;;;;;;;;;23.10;57.80;;;;;;5013302;28;1898;-71
2021/11/30 09:51:08;;;;;;;;;;;23.10;57.80;;;;;;5013136;28;1410;-71
2021/11/30 09:53:33;;;;;;;;;;;23.10;57.90;;;;;;5013703;28;1056;-71
2021/11/30 09:55:59;;;;;;;;;;;23.00;57.90;;;;;;5013644;28;1351;-71
2021/11/30 09:58:25;;;;;;;;;;;23.00;58.00;;;;;;5013196;28;1066;-71
2021/11/30 10:00:52;;;;;;;;;;;23.00;58.20;;;;;;5027839;28;1140;-71
2021/11/30 10:03:18;;;;;;;;;;;23.00;58.30;;;;;;5013292;28;1128;-70
2021/11/30 10:05:44;;;;;;;;;;;23.00;58.40;;;;;;4993118;28;1350;-70
2021/11/30 10:08:23;;;;;;;;;;;22.90;58.40;;;;;;4993929;28;1308;-70
2021/11/30 10:10:48;;;;;;;;;;;22.90;58.50;;;;;;5008448;28;1053;-70
2021/11/30 10:13:14;;;;;;;;;;;22.90;58.60;;;;;;4993035;28;1309;-70
2021/11/30 10:15:46;;;;;;;;;;;22.90;58.80;;;;;;5000853;28;1214;-69
2021/11/30 10:18:24;;;;;;;;;;;22.80;59.00;;;;;;5012892;28;1351;-70
2021/11/30 10:20:52;;;;;;;;;;;22.80;58.90;;;;;;5012737;28;1057;-70
2021/11/30 10:23:17;;;;;;;;;;;22.80;59.00;;;;;;5027816;28;1395;-70
2021/11/30 10:25:43;;;;;;;;;;;22.80;59.00;;;;;;5013026;28;1366;-70
2021/11/30 10:28:11;;;;;;;;;;;22.70;59.10;;;;;;5013375;28;1414;-71
2021/11/30 10:30:41;;;;;;;;;;;22.70;59.70;;;;;;5012657;28;1969;-71
2021/11/30 10:33:16;;;;;;;;;;;22.70;59.20;;;;;;5012529;28;1254;-71
2021/11/30 10:35:42;;;;;;;;;;;22.70;59.20;;;;;;5026719;28;1326;-70
2021/11/30 10:38:08;;;;;;;;;;;22.70;59.50;;;;;;5027917;28;1338;-70
2021/11/30 10:40:37;;;;;;;;;;;22.60;59.40;;;;;;5018396;28;1386;-70
2021/11/30 10:43:03;;;;;;;;;;;22.60;59.40;;;;;;5025660;28;1460;-72
2021/11/30 10:45:34;;;;;;;;;;;22.60;59.50;;;;;;5028200;28;1400;-71
2021/11/30 10:48:26;;;;;;;;;;;22.60;59.50;;;;;;5012772;28;1158;-71
2021/11/30 10:50:56;;;;;;;;;;;22.60;59.50;;;;;;5008846;28;1320;-70
2021/11/30 10:53:25;;;;;;;;;;;22.60;59.60;;;;;;5012613;28;1290;-70
2021/11/30 10:55:51;;;;;;;;;;;22.60;59.70;;;;;;5012445;28;1675;-70
2021/11/30 10:58:17;;;;;;;;;;;22.60;59.70;;;;;;5012533;28;1360;-70
2021/11/30 11:00:43;;;;;;;;;;;22.60;59.70;;;;;;5012555;28;1422;-70
2021/11/30 11:03:13;;;;;;;;;;;22.50;59.70;;;;;;5012474;28;1159;-70
2021/11/30 11:05:45;;;;;;;;;;;22.50;59.70;;;;;;5027386;28;1357;-70
2021/11/30 11:08:13;;;;;;;;;;;22.50;59.70;;;;;;5011185;28;1298;-71
2021/11/30 11:10:40;;;;;;;;;;;22.50;59.80;;;;;;5012481;28;1906;-70
2021/11/30 11:13:22;;;;;;;;;;;22.50;59.70;;;;;;5011114;28;1256;-71
2021/11/30 11:15:47;;;;;;;;;;;22.50;59.80;;;;;;5011014;28;2180;-70
2021/11/30 11:18:23;;;;;;;;;;;22.50;59.80;;;;;;5012520;28;1097;-71
2021/11/30 11:20:49;;;;;;;;;;;22.50;59.90;;;;;;5026698;28;1128;-70
2021/11/30 11:23:19;;;;;;;;;;;22.50;59.90;;;;;;5024376;28;1321;-70
2021/11/30 11:25:44;;;;;;;;;;;22.50;59.90;;;;;;4991562;28;1343;-70
2021/11/30 11:28:10;;;;;;;;;;;22.50;59.90;;;;;;5018294;28;1121;-71
2021/11/30 11:30:35;;;;;;;;;;;22.50;60.00;;;;;;5012398;28;1890;-70
2021/11/30 11:33:01;;;;;;;;;;;22.50;60.90;;;;;;5010634;28;1844;-70
2021/11/30 11:35:26;;;;;;;;;;;22.50;60.20;;;;;;5028502;28;1342;-70
2021/11/30 11:37:53;;;;;;;;;;;22.50;60.30;;;;;;5027145;28;1297;-70
2021/11/30 11:40:19;;;;;;;;;;;22.50;60.40;;;;;;5011852;28;1166;-70
2021/11/30 11:42:45;;;;;;;;;;;22.50;60.50;;;;;;5007688;28;1873;-70
2021/11/30 11:45:10;;;;;;;;;;;22.50;60.40;;;;;;5011495;28;1336;-71
2021/11/30 11:47:36;;;;;;;;;;;22.50;60.30;;;;;;5007207;28;1481;-71
2021/11/30 11:50:09;;;;;;;;;;;22.50;60.40;;;;;;5010182;28;1969;-71
2021/11/30 11:52:36;;;;;;;;;;;22.50;60.40;;;;;;5008112;28;1364;-71
2021/11/30 11:55:17;;;;;;;;;;;22.50;60.50;;;;;;5029882;28;1379;-71
2021/11/30 11:57:56;;;;;;;;;;;22.50;60.50;;;;;;5027396;28;1330;-71
2021/11/30 12:00:22;;;;;;;;;;;22.50;60.30;;;;;;5010575;28;1341;-72
2021/11/30 12:02:51;;;;;;;;;;;22.50;60.40;;;;;;5015195;28;1073;-72
2021/11/30 12:05:17;;;;;;;;;;;22.50;57.60;;;;;;5029231;28;1385;-72
2021/11/30 12:07:49;;;;;;;;;;;22.40;54.80;;;;;;5019593;28;1089;-72
2021/11/30 12:10:14;;;;;;;;;;;22.30;53.10;;;;;;5015848;28;1981;-73
2021/11/30 12:12:40;;;;;;;;;;;22.30;52.60;;;;;;5006249;28;1437;-72
2021/11/30 12:15:05;;;;;;;;;;;22.20;52.50;;;;;;4997506;28;1390;-72
2021/11/30 12:17:31;;;;;;;;;;;22.10;51.80;;;;;;5015610;28;1162;-71
2021/11/30 12:20:00;;;;;;;;;;;22.10;51.90;;;;;;5001494;28;1273;-72
2021/11/30 12:22:41;;;;;;;;;;;22.00;52.20;;;;;;5014554;28;1338;-69
2021/11/30 12:25:32;;;;;;;;;;;22.00;52.40;;;;;;5014945;28;1280;-71
2021/11/30 12:27:58;;;;;;;;;;;22.00;53.10;;;;;;5007962;28;1260;-71
2021/11/30 12:30:39;;;;;;;;;;;22.00;53.50;;;;;;5015036;28;1960;-70
2021/11/30 12:33:22;;;;;;;;;;;22.00;53.80;;;;;;5016280;28;1112;-69
2021/11/30 12:35:54;;;;;;;;;;;22.00;54.10;;;;;;5012919;28;1321;-69
2021/11/30 12:38:24;;;;;;;;;;;21.90;54.20;;;;;;5014186;28;1224;-69
2021/11/30 12:40:49;;;;;;;;;;;21.90;54.40;;;;;;5002757;28;1139;-72
2021/11/30 12:43:18;;;;;;;;;;;21.90;54.60;;;;;;5014554;28;1428;-72
2021/11/30 12:45:45;;;;;;;;;;;21.90;54.80;;;;;;5014327;28;1261;-73
2021/11/30 12:48:14;;;;;;;;;;;21.90;55.00;;;;;;4995021;28;1065;-71
2021/11/30 12:50:40;;;;;;;;;;;21.90;55.10;;;;;;4994924;28;1978;-74
2021/11/30 12:53:06;;;;;;;;;;;21.90;55.30;;;;;;5009410;28;958;-71
2021/11/30 12:55:41;;;;;;;;;;;21.90;55.40;;;;;;4995049;28;1330;-71
2021/11/30 12:58:07;;;;;;;;;;;21.90;55.60;;;;;;5019339;28;1140;-71
2021/11/30 13:00:32;;;;;;;;;;;21.90;55.70;;;;;;5013637;28;1274;-71
2021/11/30 13:03:17;;;;;;;;;;;21.90;55.80;;;;;;5013487;28;1092;-71
2021/11/30 13:05:55;;;;;;;;;;;21.90;55.90;;;;;;5011859;28;1353;-72
2021/11/30 13:08:20;;;;;;;;;;;21.80;56.00;;;;;;5013320;28;1312;-71
2021/11/30 13:10:50;;;;;;;;;;;21.80;56.10;;;;;;5014096;28;1906;-70
2021/11/30 13:13:20;;;;;;;;;;;21.80;56.20;;;;;;5014038;28;1069;-71
2021/11/30 13:15:50;;;;;;;;;;;21.80;56.30;;;;;;5005832;28;1257;-71
2021/11/30 13:18:15;;;;;;;;;;;21.80;56.40;;;;;;4994734;28;1112;-71
2021/11/30 13:20:42;;;;;;;;;;;21.80;56.40;;;;;;5016010;28;1305;-72
2021/11/30 13:23:08;;;;;;;;;;;21.80;56.50;;;;;;5013768;28;1339;-71
2021/11/30 13:25:34;;;;;;;;;;;21.80;56.60;;;;;;5014136;28;1236;-71
2021/11/30 13:28:01;;;;;;;;;;;21.80;56.70;;;;;;5000960;28;1076;-71
2021/11/30 13:30:27;;;;;;;;;;;21.80;56.80;;;;;;5005027;28;1969;-71
2021/11/30 13:33:00;;;;;;;;;;;21.80;56.80;;;;;;4995860;28;1051;-71
2021/11/30 13:35:29;;;;;;;;;;;21.70;56.80;;;;;;5029379;28;1223;-71
2021/11/30 13:37:55;;;;;;;;;;;21.70;56.90;;;;;;5000612;28;1052;-71
2021/11/30 13:40:39;;;;;;;;;;;21.70;57.00;;;;;;5013972;28;1124;-72
2021/11/30 13:43:09;;;;;;;;;;;21.70;57.00;;;;;;5013019;28;1211;-71
2021/11/30 13:45:37;;;;;;;;;;;21.70;57.10;;;;;;5013969;28;1328;-71
2021/11/30 13:48:02;;;;;;;;;;;21.70;57.20;;;;;;4999908;28;1516;-71
2021/11/30 13:50:28;;;;;;;;;;;21.70;57.20;;;;;;5013284;28;1910;-71
2021/11/30 13:53:25;;;;;;;;;;;21.70;57.20;;;;;;4998495;28;1121;-71
2021/11/30 13:55:56;;;;;;;;;;;21.70;57.20;;;;;;4996633;28;1462;-71
2021/11/30 13:58:33;;;;;;;;;;;21.70;57.30;;;;;;5002898;28;1275;-71
2021/11/30 14:01:11;;;;;;;;;;;21.60;57.30;;;;;;5012620;28;1133;-72
2021/11/30 14:03:37;;;;;;;;;;;21.60;57.40;;;;;;5012261;28;1132;-72
2021/11/30 14:06:19;;;;;;;;;;;21.60;57.60;;;;;;5008644;28;1355;-71
2021/11/30 14:08:44;;;;;;;;;;;21.60;57.40;;;;;;4993883;28;1898;-73
2021/11/30 14:11:14;;;;;;;;;;;21.60;57.40;;;;;;4993224;28;1338;-71
2021/11/30 14:13:39;;;;;;;;;;;21.60;57.50;;;;;;5025471;28;1120;-72
2021/11/30 14:16:04;;;;;;;;;;;21.60;57.60;;;;;;5028429;28;1270;-72
2021/11/30 14:18:30;;;;;;;;;;;21.60;57.60;;;;;;5012638;28;1068;-72
2021/11/30 14:20:55;;;;;;;;;;;21.60;57.60;;;;;;5011460;28;1116;-72
2021/11/30 14:23:22;;;;;;;;;;;21.60;57.60;;;;;;5028138;28;1345;-73
2021/11/30 14:25:50;;;;;;;;;;;21.50;57.60;;;;;;5013590;28;1193;-72
2021/11/30 14:28:17;;;;;;;;;;;21.50;57.70;;;;;;5009574;28;1080;-73
2021/11/30 14:30:44;;;;;;;;;;;21.50;57.70;;;;;;5024349;28;1906;-72
2021/11/30 14:33:17;;;;;;;;;;;21.50;57.70;;;;;;5009267;28;1120;-72
2021/11/30 14:35:54;;;;;;;;;;;21.50;57.80;;;;;;5008339;28;1273;-72
2021/11/30 14:38:26;;;;;;;;;;;21.50;57.80;;;;;;5010717;28;1260;-72
2021/11/30 14:40:52;;;;;;;;;;;21.50;57.80;;;;;;5023870;28;1352;-70
2021/11/30 14:43:19;;;;;;;;;;;21.50;57.90;;;;;;5006714;28;1346;-72
2021/11/30 14:45:45;;;;;;;;;;;21.50;57.90;;;;;;5009085;28;1325;-68